YPGV

Details ICAO YPGV (GOV)
Name Gove
Region Australia
Timezone Australia/Darwin (UTC+9.5)
Plans Departing 6
Arriving 11
Stats Elevation 179 ft / 55 m (AMSL)
Location -12.269216° 136.817569°
Runways 1
Magnetic Variation 3.834° E
Sunrise 2018-05-24 21:06:25 UTC / 2018-05-25 06:36:25 Local
Sunset 2018-05-25 08:35:42 UTC / 2018-05-25 18:05:42 Local
Advertisement - Login to hide

Runways

ID Width Length Bearing (true) Bearing (mag) Surface Threshold Offset Overrun Length
13 148 ft / 45 m 7,254 ft / 2,211 m 130.10° 126.27° Asphalt 0 ft / 0 m 180 ft / 55 m
31 148 ft / 45 m 7,254 ft / 2,211 m 310.10° 306.27° Asphalt 0 ft / 0 m 554 ft / 169 m

Map

Weather


0- 5 10 15 20 25 30 35+ Temperature / ° C

Clouds and Precipitation
Forecast for 2018-05-25 06:00 UTC. Updated a few seconds ago

Ground ~20,000 ft ~40,000 ft Winds

METAR

YPGV 250500Z 14014KT 9999 SCT023 29/22 Q1010

TAF

TAF YPGV 250006Z 2502/2514 12014KT 9999 SCT025 FM250900 12007KT 9999 SCT020

Frequencies

Unicom 119.60 MHz ACTIVATE LIGHTS ONLY MULT
Unicom 127.80 MHz NHULUNBUY MULT
Unicom 125.00 MHz BRISBANE CENTRE MULT
Warning: Do not use this data for real-world aviation or navigation. No guarantee of current accuracy is given.